createdAt,value
2018-12-14T00:00:36.851Z,17.60
2018-12-14T00:03:05.220Z,17.43
2018-12-14T00:05:33.535Z,17.37
2018-12-14T00:08:02.013Z,20.13
2018-12-14T00:10:30.289Z,19.50
2018-12-14T00:12:58.649Z,20.07
2018-12-14T00:15:26.943Z,16.93
2018-12-14T00:17:56.174Z,17.80
2018-12-14T00:20:24.444Z,18.23
2018-12-14T00:22:52.678Z,19.77
2018-12-14T00:25:21.349Z,19.77
2018-12-14T00:27:49.610Z,18.73
2018-12-14T00:30:17.847Z,18.33
2018-12-14T00:32:46.086Z,18.53
2018-12-14T00:35:14.733Z,19.20
2018-12-14T00:37:42.992Z,17.70
2018-12-14T00:40:11.530Z,18.27
2018-12-14T00:42:39.823Z,17.03
2018-12-14T00:45:08.063Z,17.00
2018-12-14T00:47:36.356Z,17.70
2018-12-14T00:50:06.101Z,18.85
2018-12-14T00:52:34.466Z,19.92
2018-12-14T00:55:03.909Z,18.77
2018-12-14T00:57:32.156Z,18.82
2018-12-14T01:00:00.484Z,19.35
2018-12-14T01:02:28.818Z,22.10
2018-12-14T01:04:57.225Z,19.98
2018-12-14T01:07:25.501Z,20.10
2018-12-14T01:09:53.867Z,19.30
2018-12-14T01:12:22.211Z,19.57
2018-12-14T01:14:50.510Z,19.20
2018-12-14T01:17:18.755Z,19.15
2018-12-14T01:19:47.032Z,18.20
2018-12-14T01:22:15.320Z,20.60
2018-12-14T01:24:43.633Z,20.97
2018-12-14T01:27:11.894Z,17.17
2018-12-14T01:29:40.176Z,19.10
2018-12-14T01:32:08.437Z,20.40
2018-12-14T01:34:36.731Z,20.35
2018-12-14T01:37:05.069Z,21.47
2018-12-14T01:39:33.299Z,20.03
2018-12-14T01:42:04.825Z,20.60
2018-12-14T01:44:31.828Z,19.32
2018-12-14T01:47:00.167Z,21.62
2018-12-14T01:49:28.472Z,19.55
2018-12-14T01:51:56.860Z,21.67
2018-12-14T01:54:25.172Z,20.80
2018-12-14T01:56:53.542Z,21.50
2018-12-14T01:59:21.776Z,24.23
2018-12-14T02:01:50.020Z,22.58
2018-12-14T02:04:18.324Z,20.10
2018-12-14T02:06:46.601Z,21.35
2018-12-14T02:09:14.978Z,23.00
2018-12-14T02:11:44.267Z,21.37
2018-12-14T02:14:12.519Z,20.23
2018-12-14T02:16:40.776Z,20.45
2018-12-14T02:19:09.095Z,22.30
2018-12-14T02:21:37.329Z,20.50
2018-12-14T02:24:05.636Z,20.72
2018-12-14T02:26:33.900Z,20.12
2018-12-14T02:29:02.245Z,22.00
2018-12-14T02:31:30.537Z,20.70
2018-12-14T02:33:58.876Z,20.82
2018-12-14T02:36:27.150Z,21.10
2018-12-14T02:38:55.533Z,22.62
2018-12-14T02:41:23.773Z,20.92
2018-12-14T02:43:52.015Z,21.85
2018-12-14T02:46:20.286Z,22.10
2018-12-14T02:48:48.550Z,22.50
2018-12-14T02:51:16.785Z,22.60
2018-12-14T02:53:45.061Z,21.87
2018-12-14T02:56:13.350Z,20.52
2018-12-14T02:58:41.594Z,21.12
2018-12-14T03:01:09.834Z,20.00
2018-12-14T03:03:38.086Z,20.48
2018-12-14T03:06:06.334Z,21.87
2018-12-14T03:08:34.836Z,21.90
2018-12-14T03:11:03.061Z,23.00
2018-12-14T03:13:31.421Z,25.20
2018-12-14T03:16:01.924Z,24.02
2018-12-14T03:18:29.979Z,21.43
2018-12-14T03:20:58.207Z,22.00
2018-12-14T03:23:26.586Z,21.83
2018-12-14T03:25:55.248Z,20.80
2018-12-14T03:28:23.488Z,21.17
2018-12-14T03:30:51.786Z,22.20
2018-12-14T03:33:20.101Z,22.07
2018-12-14T03:35:48.504Z,22.93
2018-12-14T03:38:16.809Z,22.73
2018-12-14T03:40:45.077Z,21.57
2018-12-14T03:43:13.936Z,24.60
2018-12-14T03:45:42.240Z,21.27
2018-12-14T03:48:10.629Z,24.17
2018-12-14T03:50:38.908Z,22.77
2018-12-14T03:53:07.171Z,23.83
2018-12-14T03:55:35.449Z,23.60
2018-12-14T03:58:03.851Z,23.03
2018-12-14T04:00:32.362Z,21.85
2018-12-14T04:03:01.775Z,25.53
2018-12-14T04:05:30.544Z,20.70
2018-12-14T04:07:58.847Z,23.50
2018-12-14T04:10:27.076Z,23.40
2018-12-14T04:12:55.332Z,24.40
2018-12-14T04:15:23.711Z,20.90
2018-12-14T04:17:52.100Z,22.48
2018-12-14T04:20:20.329Z,21.60
2018-12-14T04:22:48.655Z,23.07
2018-12-14T04:25:16.980Z,23.17
2018-12-14T04:27:45.239Z,24.10
2018-12-14T04:30:14.240Z,23.15
2018-12-14T04:32:42.532Z,23.80
2018-12-14T04:35:10.950Z,23.70
2018-12-14T04:37:39.191Z,22.80
2018-12-14T04:40:07.752Z,23.92
2018-12-14T04:42:36.363Z,23.53
2018-12-14T04:45:05.315Z,22.27
2018-12-14T04:47:33.705Z,23.70
2018-12-14T04:50:02.021Z,25.60
2018-12-14T04:52:30.388Z,23.13
2018-12-14T04:54:58.724Z,24.80
2018-12-14T04:57:27.522Z,23.60
2018-12-14T04:59:55.782Z,24.27
2018-12-14T05:02:24.149Z,24.40
2018-12-14T05:04:52.690Z,21.43
2018-12-14T05:07:21.043Z,23.77
2018-12-14T05:09:49.355Z,21.97
2018-12-14T05:12:17.575Z,21.05
2018-12-14T05:14:46.143Z,21.67
2018-12-14T05:17:14.371Z,22.10
2018-12-14T05:19:42.699Z,24.50
2018-12-14T05:22:11.072Z,23.07
2018-12-14T05:24:39.339Z,21.90
2018-12-14T05:27:08.001Z,22.83
2018-12-14T05:29:36.252Z,23.43
2018-12-14T05:32:04.532Z,23.90
2018-12-14T05:34:32.788Z,22.17
2018-12-14T05:37:01.107Z,25.53
2018-12-14T05:39:29.344Z,24.07
2018-12-14T05:41:57.751Z,22.30
2018-12-14T05:44:26.000Z,23.27
2018-12-14T05:46:54.258Z,21.57
2018-12-14T05:49:22.512Z,22.80
2018-12-14T05:51:50.761Z,23.90
2018-12-14T05:54:18.988Z,25.10
2018-12-14T05:56:47.247Z,23.27
2018-12-14T05:59:15.480Z,21.70
2018-12-14T06:01:43.711Z,24.77
2018-12-14T06:04:12.095Z,23.03
2018-12-14T06:06:40.502Z,22.90
2018-12-14T06:09:10.178Z,22.10
2018-12-14T06:11:38.400Z,24.60
2018-12-14T06:14:06.647Z,21.33
2018-12-14T06:16:34.923Z,21.90
2018-12-14T06:19:03.195Z,22.67
2018-12-14T06:21:31.538Z,24.90
2018-12-14T06:23:59.771Z,24.10
2018-12-14T06:26:28.491Z,21.57
2018-12-14T06:28:56.858Z,22.13
2018-12-14T06:31:25.124Z,22.80
2018-12-14T06:33:53.389Z,22.80
2018-12-14T06:36:21.802Z,24.70
2018-12-14T06:38:50.054Z,24.10
2018-12-14T06:41:18.284Z,21.63
2018-12-14T06:43:46.668Z,24.30
2018-12-14T06:46:14.952Z,22.60
2018-12-14T06:48:43.326Z,22.47
2018-12-14T06:51:11.776Z,22.33
2018-12-14T06:53:40.161Z,23.33
2018-12-14T06:56:08.489Z,22.43
2018-12-14T06:58:37.111Z,22.47
2018-12-14T07:01:05.437Z,21.50
2018-12-14T07:03:33.658Z,21.93
2018-12-14T07:06:01.989Z,22.70
2018-12-14T07:08:31.334Z,23.13
2018-12-14T07:10:59.758Z,22.77
2018-12-14T07:13:28.048Z,22.30
2018-12-14T07:15:56.380Z,20.83
2018-12-14T07:18:24.728Z,22.57
2018-12-14T07:20:53.001Z,24.00
2018-12-14T07:23:21.228Z,24.37
2018-12-14T07:25:49.548Z,22.43
2018-12-14T07:28:17.762Z,20.93
2018-12-14T07:30:46.058Z,24.40
2018-12-14T07:33:14.328Z,21.53
2018-12-14T07:35:42.551Z,23.87
2018-12-14T07:38:10.791Z,21.23
2018-12-14T07:40:39.032Z,22.00
2018-12-14T07:43:07.520Z,22.27
2018-12-14T07:45:35.817Z,24.73
2018-12-14T07:48:04.122Z,22.70
2018-12-14T07:50:32.366Z,24.67
2018-12-14T07:53:00.627Z,20.37
2018-12-14T07:55:28.884Z,22.87
2018-12-14T07:57:57.147Z,21.97
2018-12-14T08:00:25.358Z,23.07
2018-12-14T08:02:53.612Z,22.30
2018-12-14T08:05:21.885Z,23.77
2018-12-14T08:07:50.107Z,24.10
2018-12-14T08:10:18.324Z,23.87
2018-12-14T08:12:46.852Z,22.10
2018-12-14T08:15:15.610Z,21.40
2018-12-14T08:17:43.915Z,23.43
2018-12-14T08:20:17.119Z,22.83
2018-12-14T08:22:42.464Z,22.80
2018-12-14T08:25:10.787Z,24.27
2018-12-14T08:27:39.125Z,22.10
2018-12-14T08:30:08.687Z,23.87
2018-12-14T08:32:36.998Z,23.10
2018-12-14T08:35:06.577Z,24.93
2018-12-14T08:37:34.888Z,22.23
2018-12-14T08:40:05.429Z,22.13
2018-12-14T08:42:33.722Z,24.10
2018-12-14T08:45:02.069Z,22.47
2018-12-14T08:47:30.324Z,22.83
2018-12-14T08:49:58.619Z,22.17
2018-12-14T08:52:26.920Z,20.73
2018-12-14T08:54:55.302Z,23.63
2018-12-14T08:57:23.523Z,21.07
2018-12-14T08:59:51.847Z,23.30
2018-12-14T09:02:20.173Z,23.27
2018-12-14T09:04:48.464Z,22.03
2018-12-14T09:07:16.780Z,22.00
2018-12-14T09:09:45.522Z,21.30
2018-12-14T09:12:13.836Z,21.53
2018-12-14T09:14:42.079Z,20.47
2018-12-14T09:17:10.498Z,21.00
2018-12-14T09:19:38.715Z,22.50
2018-12-14T09:22:06.961Z,23.10
2018-12-14T09:24:35.227Z,20.70
2018-12-14T09:27:03.732Z,23.73
2018-12-14T09:29:32.019Z,21.97
2018-12-14T09:32:00.340Z,24.40
2018-12-14T09:34:28.615Z,23.57
2018-12-14T09:36:56.851Z,23.83
2018-12-14T09:39:25.104Z,24.20
2018-12-14T09:41:53.371Z,26.30
2018-12-14T09:44:22.127Z,22.97
2018-12-14T09:46:50.343Z,24.97
2018-12-14T09:49:18.808Z,23.20
2018-12-14T09:51:47.147Z,21.97
2018-12-14T09:54:15.554Z,24.20
2018-12-14T09:56:43.805Z,21.43
2018-12-14T09:59:12.339Z,23.93
2018-12-14T10:01:40.691Z,23.33
2018-12-14T10:04:08.962Z,22.77
2018-12-14T10:06:37.216Z,22.10
2018-12-14T10:09:05.938Z,22.17
2018-12-14T10:11:34.265Z,25.00
2018-12-14T10:14:02.553Z,23.70
2018-12-14T10:16:31.032Z,23.73
2018-12-14T10:18:59.808Z,21.77
2018-12-14T10:21:28.131Z,28.10
2018-12-14T10:23:56.432Z,26.97
2018-12-14T10:26:24.666Z,25.73
2018-12-14T10:28:53.070Z,24.17
2018-12-14T10:31:21.377Z,22.17
2018-12-14T10:33:49.607Z,22.07
2018-12-14T10:36:18.184Z,22.87
2018-12-14T10:38:46.444Z,22.87
2018-12-14T10:41:14.694Z,22.53
2018-12-14T10:43:42.970Z,21.10
2018-12-14T10:46:11.199Z,21.17
2018-12-14T10:48:39.568Z,21.57
2018-12-14T10:51:07.915Z,22.50
2018-12-14T10:53:36.127Z,22.40
2018-12-14T10:56:04.430Z,20.67
2018-12-14T10:58:32.666Z,22.37
2018-12-14T11:01:06.629Z,21.10
2018-12-14T11:03:34.863Z,20.80
2018-12-14T11:06:03.405Z,21.20
2018-12-14T11:08:31.675Z,21.37
2018-12-14T11:10:59.914Z,23.30
2018-12-14T11:13:28.177Z,20.67
2018-12-14T11:15:56.464Z,20.67
2018-12-14T11:18:24.726Z,21.60
2018-12-14T11:20:53.003Z,21.13
2018-12-14T11:23:21.280Z,22.23
2018-12-14T11:25:49.503Z,22.90
2018-12-14T11:28:17.751Z,22.73
2018-12-14T11:30:46.008Z,21.20
2018-12-14T11:33:15.054Z,19.70
2018-12-14T11:35:43.283Z,20.67
2018-12-14T11:38:11.548Z,22.07
2018-12-14T11:40:39.824Z,21.50
2018-12-14T11:43:08.445Z,21.23
2018-12-14T11:45:36.817Z,22.53
2018-12-14T11:48:05.127Z,18.37
2018-12-14T11:50:33.435Z,20.23
2018-12-14T11:53:02.743Z,21.17
2018-12-14T11:55:31.064Z,20.90
2018-12-14T11:57:59.352Z,20.63
2018-12-14T12:00:27.655Z,18.97
2018-12-14T12:02:55.943Z,20.80
2018-12-14T12:05:24.227Z,20.87
2018-12-14T12:07:52.836Z,17.97
2018-12-14T12:10:21.326Z,19.63
2018-12-14T12:12:49.707Z,20.60
2018-12-14T12:15:17.944Z,19.67
2018-12-14T12:17:49.541Z,20.30
2018-12-14T12:20:16.880Z,20.90
2018-12-14T12:22:45.191Z,20.20
2018-12-14T12:25:13.420Z,18.87
2018-12-14T12:27:41.734Z,19.77
2018-12-14T12:30:10.255Z,20.37
2018-12-14T12:32:38.612Z,18.03
2018-12-14T12:35:08.106Z,19.27
2018-12-14T12:37:36.584Z,18.83
2018-12-14T12:40:05.459Z,19.63
2018-12-14T12:42:33.761Z,17.87
2018-12-14T12:45:02.434Z,18.90
2018-12-14T12:47:30.675Z,19.90
2018-12-14T12:49:58.937Z,19.90
2018-12-14T12:52:27.192Z,19.77
2018-12-14T12:54:55.453Z,18.07
2018-12-14T12:57:23.690Z,18.57
2018-12-14T12:59:51.950Z,18.93
2018-12-14T13:02:20.184Z,19.70
2018-12-14T13:04:48.577Z,18.30
2018-12-14T13:07:16.816Z,19.57
2018-12-14T13:09:45.077Z,19.30
2018-12-14T13:12:13.343Z,17.73
2018-12-14T13:14:41.576Z,20.70
2018-12-14T13:17:10.452Z,19.83
2018-12-14T13:19:38.743Z,21.60
2018-12-14T13:22:06.970Z,19.50
2018-12-14T13:24:35.212Z,19.70
2018-12-14T13:27:03.791Z,21.33
2018-12-14T13:29:32.044Z,20.90
2018-12-14T13:32:00.289Z,19.40
2018-12-14T13:34:28.536Z,19.70
2018-12-14T13:36:56.784Z,17.03
2018-12-14T13:39:25.052Z,19.67
2018-12-14T13:41:53.443Z,18.60
2018-12-14T13:44:21.914Z,18.43
2018-12-14T13:46:50.328Z,18.80
2018-12-14T13:49:18.761Z,19.13
2018-12-14T13:51:47.187Z,20.33
2018-12-14T13:54:15.534Z,19.97
2018-12-14T13:56:43.787Z,18.00
2018-12-14T13:59:12.047Z,18.10
2018-12-14T14:01:40.360Z,18.57
2018-12-14T14:04:08.807Z,19.00
2018-12-14T14:06:37.240Z,18.60
2018-12-14T14:09:05.761Z,18.10
2018-12-14T14:11:34.067Z,19.43
2018-12-14T14:14:02.307Z,18.57
2018-12-14T14:16:30.561Z,18.80
2018-12-14T14:18:58.882Z,20.17
2018-12-14T14:21:27.236Z,19.30
2018-12-14T14:23:55.466Z,20.10
2018-12-14T14:26:23.722Z,19.93
2018-12-14T14:28:52.032Z,19.90
2018-12-14T14:31:20.402Z,19.67
2018-12-14T14:33:48.636Z,28.67
2018-12-14T14:36:16.874Z,20.87
2018-12-14T14:38:45.136Z,36.37
2018-12-14T14:41:13.434Z,33.03
2018-12-14T14:43:42.659Z,24.37
2018-12-14T14:46:10.932Z,22.00
2018-12-14T14:48:39.218Z,20.03
2018-12-14T14:51:07.986Z,21.80
2018-12-14T14:53:36.258Z,20.40
2018-12-14T14:56:04.575Z,19.20
2018-12-14T14:58:32.958Z,18.03
2018-12-14T15:01:01.374Z,17.87
2018-12-14T15:03:29.940Z,18.20
2018-12-14T15:05:58.227Z,18.30
2018-12-14T15:08:26.571Z,15.57
2018-12-14T15:10:54.917Z,18.80
2018-12-14T15:13:25.234Z,18.57
2018-12-14T15:15:53.475Z,20.43
2018-12-14T15:18:21.742Z,17.77
2018-12-14T15:20:49.975Z,17.77
2018-12-14T15:23:18.229Z,17.37
2018-12-14T15:25:46.553Z,18.03
2018-12-14T15:28:14.976Z,18.10
2018-12-14T15:30:43.207Z,17.67
2018-12-14T15:33:11.504Z,17.93
2018-12-14T15:35:39.936Z,17.70
2018-12-14T15:38:08.648Z,18.33
2018-12-14T15:40:36.944Z,16.90
2018-12-14T15:43:05.216Z,18.00
2018-12-14T15:45:33.533Z,19.30
2018-12-14T15:48:02.213Z,19.03
2018-12-14T15:50:31.417Z,17.87
2018-12-14T15:52:59.687Z,18.20
2018-12-14T15:55:27.915Z,18.03
2018-12-14T15:57:56.216Z,18.20
2018-12-14T16:00:24.509Z,17.70
2018-12-14T16:02:52.762Z,19.30
2018-12-14T16:05:21.050Z,20.13
2018-12-14T16:07:49.339Z,25.90
2018-12-14T16:10:17.649Z,25.90
2018-12-14T16:12:46.036Z,20.67
2018-12-14T16:15:20.040Z,20.27
2018-12-14T16:17:44.689Z,21.93
2018-12-14T16:20:13.240Z,22.50
2018-12-14T16:22:41.648Z,21.93
2018-12-14T16:25:10.083Z,18.70
2018-12-14T16:27:38.418Z,18.10
2018-12-14T16:30:08.077Z,18.47
2018-12-14T16:32:36.361Z,18.67
2018-12-14T16:35:05.358Z,17.53
2018-12-14T16:37:33.691Z,18.60
2018-12-14T16:40:02.103Z,18.07
2018-12-14T16:42:30.415Z,19.33
2018-12-14T16:44:58.721Z,17.73
2018-12-14T16:47:27.019Z,19.60
2018-12-14T16:49:55.307Z,18.90
2018-12-14T16:52:23.691Z,20.37
2018-12-14T16:54:51.953Z,18.07
2018-12-14T16:57:20.192Z,19.00
2018-12-14T16:59:48.576Z,18.70
2018-12-14T17:02:16.897Z,16.60
2018-12-14T17:04:45.116Z,20.73
2018-12-14T17:07:13.418Z,17.13
2018-12-14T17:09:41.732Z,18.57
2018-12-14T17:12:09.968Z,18.50
2018-12-14T17:14:38.204Z,18.43
2018-12-14T17:17:06.453Z,18.70
2018-12-14T17:19:34.702Z,18.67
2018-12-14T17:22:03.016Z,17.37
2018-12-14T17:24:31.338Z,19.23
2018-12-14T17:26:59.658Z,18.10
2018-12-14T17:29:28.095Z,16.67
2018-12-14T17:31:56.341Z,17.60
2018-12-14T17:34:24.707Z,20.00
2018-12-14T17:36:53.182Z,18.43
2018-12-14T17:39:21.470Z,28.40
2018-12-14T17:41:49.762Z,29.70
2018-12-14T17:44:18.090Z,24.17
2018-12-14T17:46:46.572Z,20.43
2018-12-14T17:49:14.888Z,19.30
2018-12-14T17:51:43.381Z,21.00
2018-12-14T17:54:11.638Z,18.77
2018-12-14T17:56:40.133Z,19.23
2018-12-14T17:59:08.418Z,18.57
2018-12-14T18:01:36.951Z,21.57
2018-12-14T18:04:05.211Z,19.33
2018-12-14T18:06:33.618Z,22.77
2018-12-14T18:09:02.034Z,21.50
2018-12-14T18:11:30.222Z,19.30
2018-12-14T18:13:59.504Z,18.77
2018-12-14T18:16:27.779Z,20.23
2018-12-14T18:18:56.151Z,21.70
2018-12-14T18:21:24.462Z,21.53
2018-12-14T18:23:52.712Z,20.30
2018-12-14T18:26:20.991Z,20.70
2018-12-14T18:28:49.292Z,22.13
2018-12-14T18:31:17.623Z,20.60
2018-12-14T18:33:45.955Z,19.60
2018-12-14T18:36:14.222Z,18.30
2018-12-14T18:38:42.460Z,20.60
2018-12-14T18:41:10.731Z,22.60
2018-12-14T18:43:38.990Z,23.10
2018-12-14T18:46:07.531Z,43.43
2018-12-14T18:48:36.191Z,23.63
2018-12-14T18:51:04.618Z,24.10
2018-12-14T18:53:32.891Z,30.80
2018-12-14T18:56:01.111Z,33.23
2018-12-14T18:58:29.775Z,36.27
2018-12-14T19:00:58.076Z,22.00
2018-12-14T19:03:26.388Z,30.63
2018-12-14T19:05:54.691Z,26.90
2018-12-14T19:08:22.944Z,25.60
2018-12-14T19:10:51.255Z,26.33
2018-12-14T19:13:19.505Z,24.03
2018-12-14T19:15:47.744Z,22.80
2018-12-14T19:18:16.062Z,24.17
2018-12-14T19:20:44.339Z,20.47
2018-12-14T19:23:19.301Z,22.37
2018-12-14T19:25:42.844Z,22.70
2018-12-14T19:28:11.200Z,21.80
2018-12-14T19:30:39.490Z,21.73
2018-12-14T19:33:07.765Z,21.30
2018-12-14T19:35:36.008Z,19.50
2018-12-14T19:38:04.420Z,23.43
2018-12-14T19:40:32.712Z,20.27
2018-12-14T19:43:01.129Z,21.13
2018-12-14T19:45:29.508Z,22.53
2018-12-14T19:47:57.776Z,24.17
2018-12-14T19:50:26.033Z,21.87
2018-12-14T19:52:54.642Z,22.10
2018-12-14T19:55:22.905Z,20.63
2018-12-14T19:57:51.185Z,20.30
2018-12-14T20:00:19.464Z,22.00
2018-12-14T20:02:47.706Z,22.33
2018-12-14T20:05:15.963Z,21.97
2018-12-14T20:07:44.196Z,20.13
2018-12-14T20:10:12.524Z,21.57
2018-12-14T20:12:41.212Z,21.67
2018-12-14T20:15:09.568Z,21.17
2018-12-14T20:17:37.916Z,19.80
2018-12-14T20:20:06.402Z,21.37
2018-12-14T20:22:34.840Z,19.73
2018-12-14T20:25:03.392Z,19.87
2018-12-14T20:27:31.732Z,22.27
2018-12-14T20:29:59.961Z,21.33
2018-12-14T20:32:28.568Z,21.30
2018-12-14T20:34:57.312Z,20.47
2018-12-14T20:37:25.667Z,19.00
2018-12-14T20:39:53.914Z,20.07
2018-12-14T20:42:22.195Z,18.57
2018-12-14T20:44:50.466Z,20.40
2018-12-14T20:47:18.703Z,22.23
2018-12-14T20:49:47.068Z,21.70
2018-12-14T20:52:15.295Z,21.73
2018-12-14T20:54:43.561Z,19.90
2018-12-14T20:57:11.880Z,20.63
2018-12-14T20:59:40.140Z,23.40
2018-12-14T21:02:08.419Z,20.37
2018-12-14T21:04:36.679Z,22.67
2018-12-14T21:07:05.019Z,20.23
2018-12-14T21:09:33.334Z,19.80
2018-12-14T21:12:01.649Z,23.70
2018-12-14T21:14:30.137Z,25.40
2018-12-14T21:16:58.555Z,21.20
2018-12-14T21:19:26.848Z,25.00
2018-12-14T21:21:55.097Z,27.23
2018-12-14T21:24:23.375Z,24.87
2018-12-14T21:26:51.634Z,21.60
2018-12-14T21:29:19.919Z,19.30
2018-12-14T21:31:48.200Z,22.10
2018-12-14T21:34:17.077Z,20.70
2018-12-14T21:36:45.491Z,19.10
2018-12-14T21:39:13.729Z,21.93
2018-12-14T21:41:41.960Z,22.13
2018-12-14T21:44:10.224Z,21.50
2018-12-14T21:46:38.528Z,22.00
2018-12-14T21:49:06.766Z,19.47
2018-12-14T21:51:35.037Z,21.20
2018-12-14T21:54:03.456Z,21.90
2018-12-14T21:56:31.720Z,21.17
2018-12-14T21:59:00.033Z,19.90
2018-12-14T22:01:28.557Z,20.33
2018-12-14T22:03:56.887Z,21.73
2018-12-14T22:06:25.152Z,19.70
2018-12-14T22:08:53.885Z,19.80
2018-12-14T22:11:22.234Z,20.00
2018-12-14T22:13:50.456Z,19.20
2018-12-14T22:16:19.310Z,17.33
2018-12-14T22:18:47.540Z,19.23
2018-12-14T22:21:15.855Z,19.30
2018-12-14T22:23:44.179Z,18.47
2018-12-14T22:26:12.570Z,17.80
2018-12-14T22:28:40.949Z,19.77
2018-12-14T22:31:09.219Z,16.37
2018-12-14T22:33:37.477Z,18.33
2018-12-14T22:36:05.732Z,18.17
2018-12-14T22:38:33.992Z,17.80
2018-12-14T22:41:02.357Z,17.50
2018-12-14T22:43:30.641Z,17.60
2018-12-14T22:46:00.013Z,17.63
2018-12-14T22:48:28.263Z,14.47
2018-12-14T22:50:56.584Z,16.33
2018-12-14T22:53:24.917Z,20.03
2018-12-14T22:55:53.298Z,17.20
2018-12-14T22:58:21.603Z,17.67
2018-12-14T23:00:52.792Z,16.47
2018-12-14T23:03:21.291Z,15.93
2018-12-14T23:05:50.037Z,16.53
2018-12-14T23:08:18.313Z,17.93
2018-12-14T23:10:46.603Z,16.77
2018-12-14T23:13:14.855Z,15.83
2018-12-14T23:15:44.081Z,15.57
2018-12-14T23:18:12.356Z,13.73
2018-12-14T23:20:40.987Z,15.00
2018-12-14T23:23:09.230Z,15.90
2018-12-14T23:25:37.664Z,16.90
2018-12-14T23:28:05.919Z,14.97
2018-12-14T23:30:34.134Z,15.80
2018-12-14T23:33:03.383Z,15.33
2018-12-14T23:35:31.657Z,16.93
2018-12-14T23:37:59.927Z,16.40
2018-12-14T23:40:28.321Z,15.00
2018-12-14T23:42:56.794Z,13.63
2018-12-14T23:45:25.052Z,13.63
2018-12-14T23:47:53.351Z,14.53
2018-12-14T23:50:21.564Z,13.77
2018-12-14T23:52:49.863Z,15.10
2018-12-14T23:55:18.105Z,12.27
2018-12-14T23:57:46.344Z,15.90
